createdAt,value
2019-01-04T00:02:07.295Z,80.40
2019-01-04T00:04:46.942Z,80.30
2019-01-04T00:07:26.992Z,80.40
2019-01-04T00:10:07.082Z,80.30
2019-01-04T00:12:47.272Z,80.10
2019-01-04T00:15:27.579Z,80.00
2019-01-04T00:18:07.709Z,79.60
2019-01-04T00:20:47.517Z,79.90
2019-01-04T00:23:27.626Z,79.80
2019-01-04T00:26:07.799Z,79.70
2019-01-04T00:28:47.818Z,80.20
2019-01-04T00:31:27.695Z,79.50
2019-01-04T00:34:08.078Z,79.30
2019-01-04T00:36:47.760Z,79.20
2019-01-04T00:39:28.251Z,79.00
2019-01-04T00:42:08.188Z,78.80
2019-01-04T00:44:47.962Z,78.70
2019-01-04T00:47:28.252Z,78.40
2019-01-04T00:50:08.316Z,78.80
2019-01-04T00:52:48.380Z,78.70
2019-01-04T00:55:28.436Z,78.90
2019-01-04T00:58:08.622Z,79.00
2019-01-04T01:00:49.070Z,79.10
2019-01-04T01:03:28.564Z,78.90
2019-01-04T01:06:09.070Z,78.90
2019-01-04T01:08:49.506Z,79.80
2019-01-04T01:11:29.502Z,79.00
2019-01-04T01:14:09.316Z,79.00
2019-01-04T01:16:49.311Z,78.80
2019-01-04T01:19:29.445Z,79.10
2019-01-04T01:22:09.832Z,78.90
2019-01-04T01:24:49.605Z,79.00
2019-01-04T01:27:29.470Z,79.10
2019-01-04T01:30:09.790Z,79.60
2019-01-04T01:32:49.459Z,79.50
2019-01-04T01:35:29.533Z,79.30
2019-01-04T01:38:09.854Z,79.40
2019-01-04T01:40:49.685Z,79.20
2019-01-04T01:43:29.690Z,79.40
2019-01-04T01:46:09.786Z,79.20
2019-01-04T01:48:50.198Z,79.40
2019-01-04T01:51:30.439Z,79.90
2019-01-04T01:54:10.353Z,80.00
2019-01-04T01:56:51.696Z,80.00
2019-01-04T01:59:31.614Z,79.90
2019-01-04T02:02:11.576Z,79.90
2019-01-04T02:04:51.868Z,79.90
2019-01-04T02:07:31.858Z,79.90
2019-01-04T02:10:11.903Z,79.70
2019-01-04T02:12:52.086Z,79.80
2019-01-04T02:15:32.554Z,79.70
2019-01-04T02:18:16.208Z,79.80
2019-01-04T02:20:56.710Z,79.50
2019-01-04T02:23:36.413Z,79.30
2019-01-04T02:26:16.808Z,79.30
2019-01-04T02:28:56.857Z,79.90
2019-01-04T02:31:36.562Z,80.00
2019-01-04T02:34:16.750Z,80.20
2019-01-04T02:36:56.757Z,80.10
2019-01-04T02:39:36.889Z,80.00
2019-01-04T02:42:18.491Z,80.10
2019-01-04T02:44:58.491Z,80.50
2019-01-04T02:47:38.952Z,81.10
2019-01-04T02:50:18.711Z,81.00
2019-01-04T02:52:58.735Z,81.30
2019-01-04T02:55:39.226Z,81.00
2019-01-04T02:58:20.178Z,81.00
2019-01-04T03:01:00.091Z,81.00
2019-01-04T03:03:39.898Z,81.10
2019-01-04T03:06:19.990Z,80.90
2019-01-04T03:08:59.963Z,80.90
2019-01-04T03:11:39.985Z,80.90
2019-01-04T03:14:19.645Z,80.90
2019-01-04T03:17:00.066Z,80.90
2019-01-04T03:19:40.029Z,81.00
2019-01-04T03:22:20.258Z,80.90
2019-01-04T03:25:00.166Z,80.90
2019-01-04T03:27:40.316Z,80.60
2019-01-04T03:30:20.675Z,80.50
2019-01-04T03:33:00.823Z,80.70
2019-01-04T03:35:40.811Z,80.10
2019-01-04T03:38:20.910Z,79.80
2019-01-04T03:41:00.995Z,80.20
2019-01-04T03:43:41.017Z,80.00
2019-01-04T03:46:20.860Z,79.90
2019-01-04T03:49:01.086Z,80.30
2019-01-04T03:51:41.218Z,80.20
2019-01-04T03:54:21.264Z,80.10
2019-01-04T03:57:01.474Z,79.70
2019-01-04T03:59:41.527Z,79.70
2019-01-04T04:02:21.459Z,79.60
2019-01-04T04:05:01.912Z,79.30
2019-01-04T04:07:41.816Z,79.20
2019-01-04T04:10:21.980Z,79.10
2019-01-04T04:13:02.294Z,78.70
2019-01-04T04:15:42.336Z,78.70
2019-01-04T04:18:22.387Z,77.70
2019-01-04T04:21:02.426Z,76.80
2019-01-04T04:23:42.406Z,76.90
2019-01-04T04:26:23.046Z,76.70
2019-01-04T04:29:02.974Z,76.00
2019-01-04T04:31:42.946Z,76.20
2019-01-04T04:34:23.208Z,76.40
2019-01-04T04:37:03.336Z,76.60
2019-01-04T04:39:43.166Z,76.80
2019-01-04T04:42:23.615Z,77.20
2019-01-04T04:45:03.486Z,78.40
2019-01-04T04:47:43.507Z,79.10
2019-01-04T04:50:23.870Z,79.40
2019-01-04T04:53:04.928Z,79.30
2019-01-04T04:55:45.120Z,78.70
2019-01-04T04:58:25.077Z,78.00
2019-01-04T05:01:05.162Z,77.60
2019-01-04T05:03:45.373Z,77.50
2019-01-04T05:06:25.491Z,77.40
2019-01-04T05:09:05.639Z,77.40
2019-01-04T05:11:46.012Z,77.10
2019-01-04T05:14:25.824Z,77.80
2019-01-04T05:17:06.185Z,78.20
2019-01-04T05:19:46.282Z,79.80
2019-01-04T05:22:27.228Z,79.30
2019-01-04T05:25:07.468Z,79.30
2019-01-04T05:27:47.381Z,79.60
2019-01-04T05:30:27.734Z,78.80
2019-01-04T05:33:07.436Z,79.20
2019-01-04T05:35:47.376Z,78.90
2019-01-04T05:38:27.416Z,78.40
2019-01-04T05:41:07.483Z,78.40
2019-01-04T05:43:47.711Z,78.90
2019-01-04T05:46:27.370Z,79.30
2019-01-04T05:49:07.196Z,79.30
2019-01-04T05:51:47.225Z,79.80
2019-01-04T05:54:28.286Z,79.90
2019-01-04T05:57:08.374Z,80.40
2019-01-04T05:59:48.500Z,80.90
2019-01-04T06:02:28.422Z,80.80
2019-01-04T06:05:08.520Z,81.00
2019-01-04T06:07:48.645Z,80.80
2019-01-04T06:10:28.715Z,80.70
2019-01-04T06:13:08.804Z,80.50
2019-01-04T06:15:48.949Z,80.60
2019-01-04T06:18:28.812Z,79.70
2019-01-04T06:21:09.259Z,79.30
2019-01-04T06:23:49.429Z,78.90
2019-01-04T06:26:29.407Z,78.70
2019-01-04T06:29:09.613Z,78.30
2019-01-04T06:31:49.898Z,77.80
2019-01-04T06:34:30.098Z,77.40
2019-01-04T06:37:10.112Z,76.50
2019-01-04T06:39:50.208Z,77.50
2019-01-04T06:42:30.212Z,78.30
2019-01-04T06:45:10.292Z,78.90
2019-01-04T06:47:53.297Z,79.00
2019-01-04T06:50:33.541Z,79.70
2019-01-04T06:53:13.612Z,80.30
2019-01-04T06:55:54.706Z,80.70
2019-01-04T06:58:35.353Z,81.00
2019-01-04T07:01:15.788Z,81.20
2019-01-04T07:03:55.872Z,81.10
2019-01-04T07:06:36.089Z,81.10
2019-01-04T07:09:16.062Z,81.20
2019-01-04T07:11:56.469Z,81.00
2019-01-04T07:14:34.640Z,81.00
2019-01-04T07:17:21.611Z,80.60
2019-01-04T07:20:01.588Z,81.10
2019-01-04T07:22:42.014Z,82.00
2019-01-04T07:25:22.236Z,81.40
2019-01-04T07:28:02.107Z,81.20
2019-01-04T07:30:41.968Z,80.50
2019-01-04T07:33:22.090Z,80.60
2019-01-04T07:36:02.328Z,80.60
2019-01-04T07:38:42.481Z,79.60
2019-01-04T07:41:22.520Z,79.60
2019-01-04T07:44:02.544Z,79.10
2019-01-04T07:46:42.506Z,78.80
2019-01-04T07:49:22.865Z,78.70
2019-01-04T07:52:03.110Z,78.70
2019-01-04T07:54:42.968Z,78.90
2019-01-04T07:57:23.356Z,79.10
2019-01-04T08:00:03.440Z,79.20
2019-01-04T08:02:43.272Z,79.30
2019-01-04T08:05:23.340Z,79.10
2019-01-04T08:08:03.422Z,79.70
2019-01-04T08:10:43.720Z,80.50
2019-01-04T08:13:23.605Z,80.50
2019-01-04T08:16:03.868Z,80.50
2019-01-04T08:18:43.498Z,80.50
2019-01-04T08:21:23.662Z,80.80
2019-01-04T08:24:04.042Z,80.70
2019-01-04T08:26:44.216Z,80.70
2019-01-04T08:29:24.254Z,80.40
2019-01-04T08:32:04.596Z,79.90
2019-01-04T08:34:44.627Z,79.90
2019-01-04T08:37:24.741Z,79.70
2019-01-04T08:40:04.839Z,79.80
2019-01-04T08:42:45.364Z,79.70
2019-01-04T08:45:25.190Z,80.20
2019-01-04T08:48:05.472Z,79.80
2019-01-04T08:50:46.025Z,80.00
2019-01-04T08:56:06.783Z,80.00
2019-01-04T08:58:47.282Z,80.30
2019-01-04T09:01:27.281Z,80.30
2019-01-04T09:04:07.044Z,80.40
2019-01-04T09:06:48.175Z,80.70
2019-01-04T09:09:28.134Z,81.00
2019-01-04T09:11:56.005Z,80.80
2019-01-04T09:14:43.095Z,81.10
2019-01-04T09:17:23.692Z,81.20
2019-01-04T09:20:04.072Z,81.20
2019-01-04T09:22:43.962Z,81.30
2019-01-04T09:25:23.919Z,81.60
2019-01-04T09:28:03.972Z,82.30
2019-01-04T09:30:43.991Z,82.70
2019-01-04T09:33:24.064Z,82.00
2019-01-04T09:36:04.239Z,82.90
2019-01-04T09:38:45.551Z,82.80
2019-01-04T09:41:25.295Z,82.10
2019-01-04T09:44:05.534Z,82.60
2019-01-04T09:46:45.732Z,82.50
2019-01-04T09:49:26.551Z,82.90
2019-01-04T09:52:06.942Z,84.10
2019-01-04T09:54:46.788Z,84.70
2019-01-04T09:57:26.696Z,83.00
2019-01-04T10:00:07.074Z,82.60
2019-01-04T10:02:47.603Z,83.00
2019-01-04T10:05:27.502Z,83.00
2019-01-04T10:08:07.578Z,81.30
2019-01-04T10:10:47.683Z,81.80
2019-01-04T10:13:27.634Z,82.70
2019-01-04T10:16:07.930Z,82.00
2019-01-04T10:18:47.715Z,81.70
2019-01-04T10:21:27.614Z,81.70
2019-01-04T10:24:08.080Z,82.00
2019-01-04T10:26:47.695Z,82.80
2019-01-04T10:29:27.898Z,81.70
2019-01-04T10:32:08.307Z,81.20
2019-01-04T10:34:48.072Z,81.10
2019-01-04T10:37:28.433Z,80.90
2019-01-04T10:40:11.120Z,80.80
2019-01-04T10:42:51.041Z,81.00
2019-01-04T10:45:31.227Z,80.90
2019-01-04T10:48:11.388Z,80.50
2019-01-04T10:50:51.380Z,80.50
2019-01-04T10:53:31.812Z,80.10
2019-01-04T10:56:11.568Z,79.90
2019-01-04T10:58:52.772Z,80.00
2019-01-04T11:01:33.133Z,80.20
2019-01-04T11:04:13.102Z,80.20
2019-01-04T11:06:53.060Z,80.10
2019-01-04T11:09:33.184Z,79.60
2019-01-04T11:12:13.314Z,79.00
2019-01-04T11:14:53.638Z,79.00
2019-01-04T11:17:33.700Z,79.00
2019-01-04T11:20:13.800Z,78.70
2019-01-04T11:22:54.189Z,78.50
2019-01-04T11:25:33.992Z,78.70
2019-01-04T11:28:13.882Z,79.20
2019-01-04T11:30:54.172Z,78.90
2019-01-04T11:33:34.143Z,78.80
2019-01-04T11:36:14.151Z,79.50
2019-01-04T11:38:54.267Z,80.00
2019-01-04T11:41:34.271Z,79.90
2019-01-04T11:44:14.666Z,79.80
2019-01-04T11:46:54.777Z,80.10
2019-01-04T11:49:34.296Z,79.80
2019-01-04T11:52:14.619Z,80.10
2019-01-04T11:54:54.746Z,81.30
2019-01-04T11:57:34.880Z,80.10
2019-01-04T12:00:14.928Z,81.30
2019-01-04T12:02:55.997Z,79.60
2019-01-04T12:05:35.962Z,84.00
2019-01-04T12:08:15.918Z,83.50
2019-01-04T12:10:55.980Z,84.20
2019-01-04T12:13:36.304Z,83.10
2019-01-04T12:16:16.796Z,83.10
2019-01-04T12:18:56.682Z,79.40
2019-01-04T12:21:36.992Z,76.30
2019-01-04T12:24:17.392Z,75.70
2019-01-04T12:26:57.423Z,82.00
2019-01-04T12:29:37.866Z,75.70
2019-01-04T12:32:18.051Z,76.90
2019-01-04T12:34:58.325Z,75.40
2019-01-04T12:37:37.965Z,74.60
2019-01-04T12:40:18.462Z,73.90
2019-01-04T12:42:58.055Z,74.50
2019-01-04T12:45:38.035Z,74.40
2019-01-04T12:48:17.872Z,75.00
2019-01-04T12:50:57.980Z,76.00
2019-01-04T12:53:39.178Z,76.10
2019-01-04T12:56:20.350Z,75.10
2019-01-04T12:59:01.435Z,74.90
2019-01-04T13:01:41.634Z,75.20
2019-01-04T13:04:21.824Z,75.10
2019-01-04T13:07:02.104Z,75.50
2019-01-04T13:09:42.523Z,75.80
2019-01-04T13:12:22.704Z,75.10
2019-01-04T13:15:02.579Z,75.70
2019-01-04T13:17:42.656Z,75.40
2019-01-04T13:20:22.820Z,75.40
2019-01-04T13:23:03.057Z,76.30
2019-01-04T13:25:42.953Z,77.10
2019-01-04T13:28:22.958Z,77.00
2019-01-04T13:31:03.078Z,76.60
2019-01-04T13:33:43.005Z,76.80
2019-01-04T13:36:23.165Z,76.60
2019-01-04T13:39:06.140Z,75.90
2019-01-04T13:41:48.500Z,76.30
2019-01-04T13:44:28.355Z,76.40
2019-01-04T13:47:08.484Z,76.60
2019-01-04T13:49:48.919Z,76.50
2019-01-04T13:52:28.944Z,76.80
2019-01-04T13:55:08.775Z,76.50
2019-01-04T13:57:49.293Z,76.30
2019-01-04T14:00:29.264Z,76.60
2019-01-04T14:03:09.204Z,76.90
2019-01-04T14:05:49.820Z,77.20
2019-01-04T14:08:29.626Z,77.30
2019-01-04T14:11:09.796Z,77.10
2019-01-04T14:13:49.804Z,76.90
2019-01-04T14:16:29.869Z,76.70
2019-01-04T14:19:10.232Z,76.70
2019-01-04T14:21:50.083Z,77.10
2019-01-04T14:24:29.929Z,77.00
2019-01-04T14:27:10.336Z,77.30
2019-01-04T14:29:50.214Z,77.20
2019-01-04T14:32:30.265Z,77.20
2019-01-04T14:35:10.309Z,76.90
2019-01-04T14:37:50.219Z,76.90
2019-01-04T14:46:28.058Z,75.60
2019-01-04T14:49:08.232Z,76.80
2019-01-04T14:51:48.194Z,76.70
2019-01-04T14:54:28.455Z,76.80
2019-01-04T14:57:10.617Z,77.80
2019-01-04T14:59:50.286Z,78.30
2019-01-04T15:02:30.142Z,78.40
2019-01-04T15:04:57.661Z,78.50
2019-01-04T15:07:44.491Z,78.10
2019-01-04T15:10:24.708Z,78.10
2019-01-04T15:13:04.823Z,78.00
2019-01-04T15:15:45.117Z,77.70
2019-01-04T15:18:25.306Z,78.10
2019-01-04T15:21:05.552Z,78.50
2019-01-04T15:23:45.208Z,78.50
2019-01-04T15:26:25.576Z,78.40
2019-01-04T15:29:05.405Z,78.50
2019-01-04T15:31:45.918Z,78.50
2019-01-04T15:34:26.447Z,78.00
2019-01-04T15:37:07.047Z,78.00
2019-01-04T15:39:47.169Z,77.90
2019-01-04T15:42:27.126Z,78.00
2019-01-04T15:45:07.017Z,78.20
2019-01-04T15:47:47.274Z,78.10
2019-01-04T15:50:27.062Z,77.80
2019-01-04T15:53:07.194Z,77.60
2019-01-04T15:55:47.156Z,77.70
2019-01-04T15:58:27.553Z,77.80
2019-01-04T16:01:07.676Z,77.70
2019-01-04T16:03:47.663Z,77.60
2019-01-04T16:06:27.822Z,77.90
2019-01-04T16:09:08.039Z,78.20
2019-01-04T16:11:48.900Z,78.50
2019-01-04T16:14:28.841Z,78.30
2019-01-04T16:17:12.115Z,78.00
2019-01-04T16:19:51.073Z,78.30
2019-01-04T16:22:31.339Z,78.30
2019-01-04T16:28:10.357Z,78.40
2019-01-04T16:30:50.502Z,78.40
2019-01-04T16:33:31.846Z,79.00
2019-01-04T16:36:12.042Z,78.00
2019-01-04T16:38:52.514Z,78.10
2019-01-04T16:41:32.196Z,78.20
2019-01-04T16:44:12.278Z,78.30
2019-01-04T16:46:52.330Z,78.30
2019-01-04T16:49:36.521Z,78.10
2019-01-04T16:52:17.259Z,78.10
2019-01-04T16:54:57.073Z,79.00
2019-01-04T16:57:37.099Z,78.30
2019-01-04T17:00:18.441Z,78.20
2019-01-04T17:03:00.166Z,78.10
2019-01-04T17:05:40.455Z,78.10
2019-01-04T17:08:20.594Z,78.30
2019-01-04T17:11:00.809Z,78.90
2019-01-04T17:13:40.955Z,78.30
2019-01-04T17:16:21.241Z,78.70
2019-01-04T17:19:01.127Z,78.90
2019-01-04T17:21:41.469Z,79.20
2019-01-04T17:24:21.708Z,78.50
2019-01-04T17:27:01.850Z,78.90
2019-01-04T17:29:41.828Z,78.60
2019-01-04T17:32:21.929Z,78.50
2019-01-04T17:35:02.106Z,78.70
2019-01-04T17:37:42.060Z,78.60
2019-01-04T17:40:22.272Z,78.90
2019-01-04T17:43:02.522Z,78.70
2019-01-04T17:45:42.746Z,78.70
2019-01-04T17:48:22.620Z,78.50
2019-01-04T17:51:02.666Z,78.80
2019-01-04T17:53:42.779Z,78.60
2019-01-04T17:56:22.793Z,77.50
2019-01-04T17:59:03.173Z,77.80
2019-01-04T18:01:43.288Z,78.60
2019-01-04T18:04:23.607Z,78.90
2019-01-04T18:07:03.682Z,79.00
2019-01-04T18:09:43.563Z,79.50
2019-01-04T18:12:24.428Z,80.00
2019-01-04T18:15:04.862Z,80.90
2019-01-04T18:17:45.532Z,80.20
2019-01-04T18:20:26.033Z,80.30
2019-01-04T18:23:06.056Z,80.00
2019-01-04T18:25:47.161Z,79.80
2019-01-04T18:28:27.170Z,80.20
2019-01-04T18:31:07.262Z,79.50
2019-01-04T18:33:47.522Z,79.50
2019-01-04T18:36:27.867Z,79.40
2019-01-04T18:39:08.008Z,79.40
2019-01-04T18:41:48.103Z,79.40
2019-01-04T18:44:28.571Z,79.40
2019-01-04T18:47:08.516Z,79.40
2019-01-04T18:49:49.043Z,79.50
2019-01-04T18:52:28.948Z,79.60
2019-01-04T18:55:09.072Z,79.90
2019-01-04T18:57:48.675Z,80.00
2019-01-04T19:00:28.748Z,80.10
2019-01-04T19:03:08.918Z,80.30
2019-01-04T19:05:48.868Z,80.30
2019-01-04T19:08:29.663Z,80.40
2019-01-04T19:11:11.334Z,80.40
2019-01-04T19:13:51.614Z,81.20
2019-01-04T19:16:31.608Z,80.40
2019-01-04T19:19:11.953Z,80.70
2019-01-04T19:21:52.150Z,80.60
2019-01-04T19:24:32.080Z,80.90
2019-01-04T19:27:13.388Z,80.80
2019-01-04T19:29:53.293Z,80.90
2019-01-04T19:32:33.321Z,81.00
2019-01-04T19:35:13.311Z,80.90
2019-01-04T19:37:53.569Z,80.80
2019-01-04T19:40:33.444Z,80.60
2019-01-04T19:43:13.593Z,81.40
2019-01-04T19:45:53.449Z,81.00
2019-01-04T19:48:33.404Z,80.80
2019-01-04T19:51:14.040Z,81.00
2019-01-04T19:53:53.965Z,81.20
2019-01-04T19:56:34.064Z,81.20
2019-01-04T19:59:14.217Z,81.20
2019-01-04T20:01:54.614Z,81.40
2019-01-04T20:04:34.436Z,81.60
2019-01-04T20:07:33.868Z,81.50
2019-01-04T20:10:33.109Z,81.40
2019-01-04T20:13:59.399Z,81.80
2019-01-04T20:17:02.223Z,82.00
2019-01-04T20:20:07.729Z,82.20
2019-01-04T20:23:06.983Z,82.50
2019-01-04T20:26:07.348Z,82.50
2019-01-04T20:29:10.538Z,82.60
2019-01-04T20:32:10.079Z,82.90
2019-01-04T20:35:15.960Z,83.00
2019-01-04T20:38:18.036Z,83.10
2019-01-04T20:41:12.319Z,83.50
2019-01-04T20:44:06.807Z,83.30
2019-01-04T20:46:53.823Z,83.20
2019-01-04T20:50:00.267Z,83.20
2019-01-04T20:52:51.005Z,83.20
2019-01-04T20:55:50.705Z,83.40
2019-01-04T20:58:46.849Z,83.10
2019-01-04T21:01:39.947Z,83.00
2019-01-04T21:04:39.702Z,83.10
2019-01-04T21:07:39.802Z,83.00
2019-01-04T21:10:39.007Z,83.20
2019-01-04T21:13:38.232Z,83.00
2019-01-04T21:16:37.521Z,83.00
2019-01-04T21:19:35.740Z,83.00
2019-01-04T21:22:35.128Z,83.10
2019-01-04T21:25:34.343Z,83.00
2019-01-04T21:28:33.575Z,83.10
2019-01-04T21:31:36.077Z,83.10
2019-01-04T21:34:38.964Z,82.80
2019-01-04T21:37:41.589Z,82.80
2019-01-04T21:40:41.028Z,82.80
2019-01-04T21:43:41.392Z,82.70
2019-01-04T21:46:41.664Z,82.80
2019-01-04T21:49:44.573Z,82.70
2019-01-04T21:52:43.800Z,82.80
2019-01-04T21:55:43.860Z,82.70
2019-01-04T21:58:43.031Z,82.60
2019-01-04T22:01:43.101Z,82.60
2019-01-04T22:04:42.251Z,82.70
2019-01-04T22:07:40.941Z,82.70
2019-01-04T22:10:40.736Z,82.60
2019-01-04T22:13:45.785Z,82.40
2019-01-04T22:16:45.351Z,82.40
2019-01-04T22:19:44.822Z,82.30
2019-01-04T22:22:44.640Z,82.10
2019-01-04T22:25:44.693Z,82.20
2019-01-04T22:28:44.143Z,82.40
2019-01-04T22:31:43.578Z,82.60
2019-01-04T22:34:47.177Z,82.80
2019-01-04T22:37:47.169Z,82.70
2019-01-04T22:40:47.231Z,82.80
2019-01-04T22:43:49.633Z,83.10
2019-01-04T22:46:49.773Z,83.00
2019-01-04T22:49:49.690Z,82.90
2019-01-04T22:52:49.798Z,82.80
2019-01-04T22:55:49.005Z,82.60
2019-01-04T22:58:55.408Z,82.50
2019-01-04T23:02:01.953Z,82.40
2019-01-04T23:05:01.921Z,82.60
2019-01-04T23:07:54.672Z,82.50
2019-01-04T23:10:54.219Z,82.50
2019-01-04T23:13:53.845Z,82.70
2019-01-04T23:16:53.583Z,82.90
2019-01-04T23:19:52.732Z,82.90
2019-01-04T23:22:55.141Z,83.70
2019-01-04T23:25:54.680Z,83.20
2019-01-04T23:28:53.786Z,83.20
2019-01-04T23:31:53.120Z,83.60
2019-01-04T23:34:52.296Z,83.50
2019-01-04T23:37:54.568Z,83.10
2019-01-04T23:40:54.567Z,83.60
2019-01-04T23:43:53.883Z,83.60
2019-01-04T23:46:53.003Z,83.70
2019-01-04T23:49:52.557Z,83.60
2019-01-04T23:52:41.286Z,83.70
2019-01-04T23:55:48.033Z,83.70
2019-01-04T23:58:47.540Z,83.80
